createdAt,value
2022-07-26T00:01:23.719Z,11.23
2022-07-26T00:03:58.218Z,7.22
2022-07-26T00:06:26.717Z,7.60
2022-07-26T00:08:55.172Z,7.13
2022-07-26T00:11:24.594Z,10.82
2022-07-26T00:13:53.114Z,7.22
2022-07-26T00:16:21.801Z,8.13
2022-07-26T00:18:50.305Z,8.80
2022-07-26T00:21:20.168Z,7.82
2022-07-26T00:23:48.679Z,8.30
2022-07-26T00:26:17.142Z,10.43
2022-07-26T00:28:46.177Z,11.45
2022-07-26T00:31:14.757Z,7.78
2022-07-26T00:33:43.267Z,8.23
2022-07-26T00:36:11.766Z,7.75
2022-07-26T00:38:41.862Z,6.60
2022-07-26T00:41:10.346Z,7.78
2022-07-26T00:43:38.849Z,6.50
2022-07-26T00:46:07.697Z,7.30
2022-07-26T00:48:36.303Z,6.65
2022-07-26T00:51:04.829Z,6.57
2022-07-26T00:53:33.303Z,6.25
2022-07-26T00:56:03.262Z,6.68
2022-07-26T00:58:31.739Z,6.05
2022-07-26T01:01:00.264Z,6.38
2022-07-26T01:03:29.128Z,6.45
2022-07-26T01:06:05.206Z,7.05
2022-07-26T01:08:33.799Z,6.90
2022-07-26T01:11:03.710Z,6.32
2022-07-26T01:13:35.323Z,6.55
2022-07-26T01:16:04.539Z,5.85
2022-07-26T01:18:33.043Z,6.72
2022-07-26T01:21:13.256Z,9.27
2022-07-26T01:23:44.302Z,7.47
2022-07-26T01:26:13.808Z,6.00
2022-07-26T01:28:44.876Z,7.00
2022-07-26T01:31:13.493Z,6.35
2022-07-26T01:33:41.995Z,6.18
2022-07-26T01:36:12.460Z,6.57
2022-07-26T01:38:41.210Z,7.40
2022-07-26T01:41:11.492Z,8.00
2022-07-26T01:43:40.240Z,7.22
2022-07-26T01:46:10.403Z,6.72
2022-07-26T01:48:39.125Z,7.68
2022-07-26T01:51:07.753Z,8.48
2022-07-26T01:53:36.232Z,7.60
2022-07-26T01:56:04.861Z,8.55
2022-07-26T01:58:34.679Z,9.48
2022-07-26T02:01:03.172Z,7.97
2022-07-26T02:03:31.646Z,10.45
2022-07-26T02:06:00.154Z,8.60
2022-07-26T02:08:28.618Z,8.82
2022-07-26T02:11:04.005Z,8.50
2022-07-26T02:13:35.711Z,8.45
2022-07-26T02:16:04.786Z,8.48
2022-07-26T02:18:33.361Z,9.63
2022-07-26T02:21:02.218Z,7.95
2022-07-26T02:23:31.176Z,8.15
2022-07-26T02:25:59.682Z,8.32
2022-07-26T02:28:28.720Z,9.23
2022-07-26T02:30:58.570Z,8.30
2022-07-26T02:33:27.104Z,7.93
2022-07-26T02:35:55.643Z,7.93
2022-07-26T02:38:25.125Z,8.02
2022-07-26T02:40:54.124Z,8.02
2022-07-26T02:43:22.580Z,7.65
2022-07-26T02:46:01.445Z,8.18
2022-07-26T02:48:32.472Z,7.78
2022-07-26T02:51:01.244Z,8.10
2022-07-26T02:53:29.985Z,8.35
2022-07-26T02:55:58.446Z,8.23
2022-07-26T02:58:27.284Z,8.52
2022-07-26T03:00:55.757Z,8.88
2022-07-26T03:03:24.217Z,6.88
2022-07-26T03:05:54.086Z,8.48
2022-07-26T03:08:22.706Z,7.95
2022-07-26T03:10:51.167Z,11.23
2022-07-26T03:13:19.757Z,8.32
2022-07-26T03:16:03.368Z,8.02
2022-07-26T03:18:32.006Z,8.10
2022-07-26T03:21:01.833Z,9.82
2022-07-26T03:23:33.527Z,9.80
2022-07-26T03:26:02.703Z,10.90
2022-07-26T03:28:32.205Z,8.93
2022-07-26T03:31:00.802Z,8.90
2022-07-26T03:33:29.341Z,8.35
2022-07-26T03:35:57.850Z,8.73
2022-07-26T03:38:28.416Z,8.15
2022-07-26T03:40:56.913Z,9.88
2022-07-26T03:43:25.389Z,7.75
2022-07-26T03:45:54.566Z,9.55
2022-07-26T03:48:23.486Z,9.05
2022-07-26T03:50:52.015Z,7.55
2022-07-26T03:53:20.484Z,7.85
2022-07-26T03:56:08.216Z,8.27
2022-07-26T03:58:36.681Z,8.07
2022-07-26T04:01:06.007Z,8.55
2022-07-26T04:03:34.563Z,10.05
2022-07-26T04:06:03.548Z,11.13
2022-07-26T04:08:32.007Z,8.13
2022-07-26T04:11:01.971Z,8.05
2022-07-26T04:13:30.415Z,8.50
2022-07-26T04:15:58.887Z,9.00
2022-07-26T04:18:27.385Z,7.72
2022-07-26T04:20:55.859Z,9.30
2022-07-26T04:23:24.348Z,7.80
2022-07-26T04:25:52.812Z,7.78
2022-07-26T04:28:22.705Z,8.95
2022-07-26T04:30:51.205Z,8.75
2022-07-26T04:33:19.702Z,8.38
2022-07-26T04:35:48.274Z,9.05
2022-07-26T04:38:16.753Z,8.15
2022-07-26T04:40:45.417Z,8.57
2022-07-26T04:43:16.017Z,7.40
2022-07-26T04:45:46.547Z,10.70
2022-07-26T04:48:15.193Z,10.85
2022-07-26T04:50:44.017Z,7.57
2022-07-26T04:53:12.530Z,10.18
2022-07-26T04:55:41.367Z,7.93
2022-07-26T04:58:10.277Z,10.20
2022-07-26T05:00:56.794Z,7.30
2022-07-26T05:03:28.963Z,6.90
2022-07-26T05:05:57.433Z,7.32
2022-07-26T05:08:26.148Z,7.25
2022-07-26T05:10:55.882Z,9.68
2022-07-26T05:13:29.523Z,8.90
2022-07-26T05:15:59.253Z,8.70
2022-07-26T05:18:30.001Z,8.20
2022-07-26T05:21:00.557Z,7.50
2022-07-26T05:23:29.037Z,9.43
2022-07-26T05:25:57.576Z,9.48
2022-07-26T05:28:26.160Z,7.28
2022-07-26T05:30:54.639Z,10.50
2022-07-26T05:33:23.202Z,9.00
2022-07-26T05:35:53.038Z,9.32
2022-07-26T05:38:21.834Z,6.95
2022-07-26T05:40:50.996Z,8.23
2022-07-26T05:43:19.678Z,8.13
2022-07-26T05:45:48.296Z,6.65
2022-07-26T05:48:16.804Z,7.88
2022-07-26T05:50:46.146Z,9.35
2022-07-26T05:53:16.046Z,8.38
2022-07-26T05:55:44.530Z,7.15
2022-07-26T05:58:12.999Z,7.07
2022-07-26T06:00:45.331Z,8.15
2022-07-26T06:03:25.976Z,6.53
2022-07-26T06:05:55.033Z,4.32
2022-07-26T06:08:25.171Z,5.13
2022-07-26T06:10:54.401Z,4.10
2022-07-26T06:13:23.080Z,3.95
2022-07-26T06:15:51.898Z,3.95
2022-07-26T06:18:20.546Z,3.40
2022-07-26T06:20:49.659Z,3.40
2022-07-26T06:23:18.163Z,3.58
2022-07-26T06:26:04.183Z,3.53
2022-07-26T06:28:32.869Z,3.25
2022-07-26T06:31:01.515Z,3.53
2022-07-26T06:33:29.956Z,3.33
2022-07-26T06:35:58.461Z,3.40
2022-07-26T06:38:26.946Z,3.90
2022-07-26T06:40:55.430Z,4.38
2022-07-26T06:43:25.530Z,4.45
2022-07-26T06:45:54.057Z,3.42
2022-07-26T06:48:22.588Z,4.20
2022-07-26T06:50:51.427Z,4.20
2022-07-26T06:53:20.010Z,3.95
2022-07-26T06:55:48.493Z,4.03
2022-07-26T06:58:16.974Z,3.67
2022-07-26T07:00:46.912Z,4.25
2022-07-26T07:03:15.400Z,4.47
2022-07-26T07:05:48.027Z,6.15
2022-07-26T07:08:18.407Z,4.40
2022-07-26T07:10:47.512Z,4.65
2022-07-26T07:13:19.546Z,4.72
2022-07-26T07:15:49.356Z,4.60
2022-07-26T07:18:17.811Z,5.28
2022-07-26T07:20:46.454Z,4.55
2022-07-26T07:23:14.951Z,4.68
2022-07-26T07:25:44.747Z,4.40
2022-07-26T07:28:13.564Z,4.75
2022-07-26T07:30:42.074Z,4.60
2022-07-26T07:33:23.052Z,4.90
2022-07-26T07:35:51.915Z,4.95
2022-07-26T07:38:22.270Z,4.63
2022-07-26T07:40:51.348Z,4.43
2022-07-26T07:43:19.826Z,3.70
2022-07-26T07:45:48.956Z,4.18
2022-07-26T07:48:18.871Z,4.85
2022-07-26T07:50:47.457Z,3.30
2022-07-26T07:53:15.944Z,2.88
2022-07-26T07:55:46.719Z,3.85
2022-07-26T07:58:17.248Z,3.78
2022-07-26T08:00:48.084Z,3.22
2022-07-26T08:03:18.028Z,4.03
2022-07-26T08:05:49.919Z,3.30
2022-07-26T08:08:22.308Z,3.92
2022-07-26T08:10:52.427Z,3.50
2022-07-26T08:13:21.952Z,3.47
2022-07-26T08:15:52.885Z,5.65
2022-07-26T08:18:22.528Z,4.57
2022-07-26T08:20:53.391Z,3.63
2022-07-26T08:23:22.004Z,3.83
2022-07-26T08:25:57.047Z,3.83
2022-07-26T08:31:15.486Z,3.10
2022-07-26T08:33:46.273Z,2.60
2022-07-26T08:36:17.074Z,3.55
2022-07-26T08:38:47.141Z,4.03
2022-07-26T08:41:16.684Z,4.13
2022-07-26T08:43:51.886Z,4.10
2022-07-26T08:46:25.446Z,3.72
2022-07-26T08:48:55.363Z,4.72
2022-07-26T08:51:26.016Z,4.25
2022-07-26T08:53:59.305Z,2.97
2022-07-26T08:56:33.137Z,4.07
2022-07-26T08:59:04.345Z,3.97
2022-07-26T09:01:32.936Z,4.30
2022-07-26T09:04:30.960Z,4.45
2022-07-26T09:07:03.461Z,4.75
2022-07-26T09:09:32.048Z,6.80
2022-07-26T09:12:00.729Z,4.40
2022-07-26T09:14:37.898Z,5.32
2022-07-26T09:17:07.230Z,5.05
2022-07-26T09:19:36.700Z,3.55
2022-07-26T09:22:10.858Z,3.70
2022-07-26T09:24:41.168Z,4.03
2022-07-26T09:27:11.026Z,4.43
2022-07-26T09:29:46.608Z,3.22
2022-07-26T09:32:18.416Z,2.92
2022-07-26T09:34:52.634Z,4.00
2022-07-26T09:37:35.993Z,4.35
2022-07-26T09:40:05.851Z,2.72
2022-07-26T09:42:34.336Z,4.15
2022-07-26T09:45:03.325Z,3.08
2022-07-26T09:47:38.302Z,3.53
2022-07-26T09:50:14.158Z,5.05
2022-07-26T09:52:58.809Z,5.00
2022-07-26T09:55:32.105Z,4.13
2022-07-26T09:58:06.535Z,3.75
2022-07-26T10:00:35.633Z,2.80
2022-07-26T10:03:04.123Z,4.18
2022-07-26T10:05:34.041Z,3.40
2022-07-26T10:08:03.957Z,3.58
2022-07-26T10:10:33.210Z,3.72
2022-07-26T10:13:03.004Z,4.85
2022-07-26T10:15:35.801Z,4.75
2022-07-26T10:18:05.167Z,3.95
2022-07-26T10:20:41.381Z,5.38
2022-07-26T10:23:28.335Z,4.72
2022-07-26T10:25:58.161Z,4.00
2022-07-26T10:28:29.786Z,2.78
2022-07-26T10:31:16.812Z,4.40
2022-07-26T10:33:46.261Z,5.63
2022-07-26T10:36:23.491Z,3.45
2022-07-26T10:39:02.564Z,5.57
2022-07-26T10:41:36.077Z,3.70
2022-07-26T10:44:14.526Z,2.45
2022-07-26T10:46:57.158Z,3.17
2022-07-26T10:49:30.452Z,2.42
2022-07-26T10:52:22.835Z,5.07
2022-07-26T10:55:18.333Z,4.03
2022-07-26T10:57:50.209Z,2.20
2022-07-26T11:00:23.735Z,3.15
2022-07-26T11:02:55.259Z,3.20
2022-07-26T11:05:28.752Z,3.30
2022-07-26T11:07:58.884Z,2.97
2022-07-26T11:10:28.153Z,5.85
2022-07-26T11:13:05.398Z,4.22
2022-07-26T11:15:34.003Z,2.67
2022-07-26T11:18:09.410Z,4.53
2022-07-26T11:20:37.891Z,2.60
2022-07-26T11:23:06.482Z,2.67
2022-07-26T11:25:35.144Z,5.03
2022-07-26T11:28:07.199Z,3.10
2022-07-26T11:30:36.887Z,3.15
2022-07-26T11:33:06.251Z,2.50
2022-07-26T11:35:34.898Z,2.67
2022-07-26T11:38:11.819Z,3.63
2022-07-26T11:40:44.826Z,1.85
2022-07-26T11:43:14.686Z,2.53
2022-07-26T11:45:43.190Z,2.47
2022-07-26T11:48:11.690Z,1.98
2022-07-26T11:50:40.156Z,3.40
2022-07-26T11:53:22.158Z,3.17
2022-07-26T11:55:50.629Z,3.55
2022-07-26T11:58:20.581Z,2.15
2022-07-26T12:00:49.067Z,2.75
2022-07-26T12:03:17.810Z,3.97
2022-07-26T12:06:02.880Z,4.13
2022-07-26T12:08:40.298Z,2.63
2022-07-26T12:11:09.091Z,4.15
2022-07-26T12:13:55.814Z,3.35
2022-07-26T12:16:51.439Z,4.15
2022-07-26T12:19:27.355Z,4.60
2022-07-26T12:21:57.279Z,3.75
2022-07-26T12:24:42.442Z,3.17
2022-07-26T12:27:12.139Z,3.10
2022-07-26T12:29:43.152Z,2.67
2022-07-26T12:32:13.201Z,4.78
2022-07-26T12:34:43.309Z,5.10
2022-07-26T12:37:16.868Z,4.20
2022-07-26T12:40:00.881Z,3.55
2022-07-26T12:42:34.530Z,4.93
2022-07-26T12:45:06.524Z,4.97
2022-07-26T12:47:35.031Z,3.60
2022-07-26T12:50:03.929Z,6.00
2022-07-26T12:52:33.789Z,2.97
2022-07-26T12:55:03.034Z,3.92
2022-07-26T12:57:31.616Z,3.55
2022-07-26T13:00:00.139Z,2.20
2022-07-26T13:02:30.027Z,2.75
2022-07-26T13:05:00.516Z,1.92
2022-07-26T13:07:29.358Z,2.35
2022-07-26T13:10:29.934Z,2.28
2022-07-26T13:12:46.543Z,2.20
2022-07-26T13:15:15.071Z,3.63
2022-07-26T13:17:44.989Z,2.78
2022-07-26T13:20:13.454Z,1.98
2022-07-26T13:22:44.335Z,1.38
2022-07-26T13:25:12.826Z,1.45
2022-07-26T13:27:44.786Z,4.53
2022-07-26T13:30:14.378Z,2.15
2022-07-26T13:32:43.523Z,1.30
2022-07-26T13:35:13.438Z,2.13
2022-07-26T13:37:41.987Z,1.92
2022-07-26T13:40:11.121Z,2.40
2022-07-26T13:42:39.637Z,1.50
2022-07-26T13:45:08.843Z,2.53
2022-07-26T13:47:37.312Z,1.50
2022-07-26T13:50:07.725Z,4.35
2022-07-26T13:52:37.793Z,1.60
2022-07-26T13:55:06.787Z,1.65
2022-07-26T13:57:47.045Z,2.70
2022-07-26T14:00:21.925Z,1.55
2022-07-26T14:02:50.463Z,2.58
2022-07-26T14:05:18.978Z,2.10
2022-07-26T14:07:48.851Z,1.75
2022-07-26T14:10:17.383Z,2.22
2022-07-26T14:12:45.873Z,2.25
2022-07-26T14:15:21.191Z,1.77
2022-07-26T14:17:50.437Z,1.95
2022-07-26T14:20:18.929Z,1.80
2022-07-26T14:22:53.431Z,1.60
2022-07-26T14:25:22.386Z,3.20
2022-07-26T14:27:51.249Z,2.20
2022-07-26T14:30:19.809Z,1.98
2022-07-26T14:32:48.581Z,2.08
2022-07-26T14:35:17.676Z,4.90
2022-07-26T14:37:46.432Z,2.50
2022-07-26T14:40:17.507Z,4.07
2022-07-26T14:42:46.670Z,1.42
2022-07-26T14:45:15.479Z,1.05
2022-07-26T14:47:43.971Z,2.03
2022-07-26T14:50:12.921Z,1.52
2022-07-26T14:52:41.788Z,2.85
2022-07-26T14:55:11.121Z,5.40
2022-07-26T14:57:41.221Z,3.35
2022-07-26T15:00:11.325Z,2.35
2022-07-26T15:02:40.592Z,2.45
2022-07-26T15:05:09.400Z,2.40
2022-07-26T15:07:37.924Z,3.55
2022-07-26T15:10:07.004Z,1.58
2022-07-26T15:12:35.545Z,2.90
2022-07-26T15:15:07.207Z,1.23
2022-07-26T15:17:36.028Z,2.55
2022-07-26T15:20:04.864Z,1.25
2022-07-26T15:22:33.340Z,2.28
2022-07-26T15:25:01.884Z,1.17
2022-07-26T15:27:30.353Z,1.58
2022-07-26T15:30:04.281Z,1.50
2022-07-26T15:32:36.013Z,1.52
2022-07-26T15:35:04.573Z,2.05
2022-07-26T15:37:33.061Z,1.02
2022-07-26T15:40:01.759Z,2.50
2022-07-26T15:42:32.189Z,2.60
2022-07-26T15:45:02.088Z,1.63
2022-07-26T15:48:00.932Z,2.42
2022-07-26T15:50:28.072Z,1.55
2022-07-26T15:52:56.546Z,1.92
2022-07-26T15:55:25.033Z,1.58
2022-07-26T15:57:53.857Z,2.60
2022-07-26T16:00:22.337Z,2.90
2022-07-26T16:02:52.203Z,2.70
2022-07-26T16:05:21.177Z,3.13
2022-07-26T16:07:49.757Z,2.58
2022-07-26T16:10:19.404Z,2.70
2022-07-26T16:12:48.096Z,1.42
2022-07-26T16:15:16.620Z,2.42
2022-07-26T16:17:45.192Z,3.53
2022-07-26T16:20:15.848Z,3.58
2022-07-26T16:22:44.421Z,2.05
2022-07-26T16:25:14.183Z,2.55
2022-07-26T16:27:43.804Z,3.65
2022-07-26T16:30:12.963Z,1.92
2022-07-26T16:32:41.439Z,2.00
2022-07-26T16:35:10.521Z,1.70
2022-07-26T16:37:41.463Z,2.33
2022-07-26T16:40:10.881Z,3.25
2022-07-26T16:42:39.388Z,0.90
2022-07-26T16:45:08.819Z,1.90
2022-07-26T16:47:37.315Z,1.35
2022-07-26T16:50:06.227Z,1.10
2022-07-26T16:52:35.002Z,2.10
2022-07-26T16:55:05.638Z,1.38
2022-07-26T16:57:34.083Z,3.38
2022-07-26T17:00:02.551Z,3.05
2022-07-26T17:02:31.123Z,4.88
2022-07-26T17:04:59.680Z,1.90
2022-07-26T17:07:28.557Z,2.50
2022-07-26T17:09:57.700Z,2.10
2022-07-26T17:12:27.553Z,1.75
2022-07-26T17:14:56.179Z,1.98
2022-07-26T17:17:24.637Z,1.63
2022-07-26T17:19:53.120Z,1.00
2022-07-26T17:22:21.677Z,1.98
2022-07-26T17:24:50.436Z,2.53
2022-07-26T17:27:19.010Z,1.45
2022-07-26T17:29:48.860Z,2.55
2022-07-26T17:32:17.313Z,3.08
2022-07-26T17:34:45.797Z,1.92
2022-07-26T17:37:14.269Z,4.10
2022-07-26T17:39:53.427Z,1.20
2022-07-26T17:42:22.626Z,1.65
2022-07-26T17:44:53.151Z,1.35
2022-07-26T17:47:29.534Z,2.25
2022-07-26T17:52:48.558Z,4.10
2022-07-26T17:55:18.596Z,5.50
2022-07-26T17:57:47.933Z,2.17
2022-07-26T18:00:18.661Z,2.15
2022-07-26T18:02:47.141Z,3.88
2022-07-26T18:05:16.069Z,2.50
2022-07-26T18:07:44.650Z,2.25
2022-07-26T18:10:14.481Z,3.72
2022-07-26T18:12:43.088Z,2.83
2022-07-26T18:15:12.060Z,2.83
2022-07-26T18:17:42.198Z,1.80
2022-07-26T18:20:11.263Z,4.20
2022-07-26T18:22:39.768Z,2.83
2022-07-26T18:25:08.813Z,2.17
2022-07-26T18:27:37.373Z,2.83
2022-07-26T18:30:06.469Z,5.68
2022-07-26T18:32:35.293Z,2.75
2022-07-26T18:35:06.037Z,1.75
2022-07-26T18:37:34.550Z,3.83
2022-07-26T18:40:03.085Z,1.70
2022-07-26T18:42:31.570Z,3.50
2022-07-26T18:45:00.033Z,1.38
2022-07-26T18:47:28.481Z,3.28
2022-07-26T18:49:56.948Z,4.97
2022-07-26T18:52:28.770Z,1.75
2022-07-26T18:55:01.633Z,1.77
2022-07-26T18:57:30.194Z,1.45
2022-07-26T18:59:58.741Z,1.33
2022-07-26T19:02:27.288Z,2.20
2022-07-26T19:04:55.784Z,5.15
2022-07-26T19:07:24.293Z,2.20
2022-07-26T19:09:58.342Z,4.10
2022-07-26T19:12:27.332Z,2.08
2022-07-26T19:14:55.913Z,2.20
2022-07-26T19:17:24.466Z,1.52
2022-07-26T19:19:52.975Z,1.40
2022-07-26T19:22:23.362Z,1.63
2022-07-26T19:24:51.850Z,3.97
2022-07-26T19:27:21.756Z,2.95
2022-07-26T19:29:50.193Z,1.33
2022-07-26T19:32:18.938Z,1.52
2022-07-26T19:34:47.404Z,1.58
2022-07-26T19:37:21.161Z,1.55
2022-07-26T19:39:49.871Z,2.05
2022-07-26T19:42:18.410Z,4.13
2022-07-26T19:44:48.413Z,1.63
2022-07-26T19:47:16.913Z,4.93
2022-07-26T19:49:45.364Z,3.22
2022-07-26T19:52:13.857Z,1.40
2022-07-26T19:54:42.309Z,2.25
2022-07-26T19:57:10.806Z,1.70
2022-07-26T19:59:39.313Z,3.00
2022-07-26T20:02:09.272Z,3.55
2022-07-26T20:04:40.705Z,2.95
2022-07-26T20:07:11.392Z,4.45
2022-07-26T20:09:39.921Z,2.88
2022-07-26T20:12:08.457Z,2.08
2022-07-26T20:14:36.982Z,2.03
2022-07-26T20:17:13.165Z,3.17
2022-07-26T20:19:43.315Z,1.95
2022-07-26T20:22:12.076Z,2.67
2022-07-26T20:24:40.553Z,1.23
2022-07-26T20:27:09.584Z,1.45
2022-07-26T20:29:38.071Z,2.45
2022-07-26T20:32:07.012Z,0.85
2022-07-26T20:34:35.465Z,1.27
2022-07-26T20:37:05.286Z,2.10
2022-07-26T20:39:34.733Z,1.80
2022-07-26T20:42:03.237Z,2.30
2022-07-26T20:44:32.317Z,4.00
2022-07-26T20:47:02.948Z,4.40
2022-07-26T20:49:31.527Z,1.65
2022-07-26T20:52:00.149Z,0.90
2022-07-26T20:54:30.138Z,3.15
2022-07-26T20:56:58.717Z,2.75
2022-07-26T20:59:28.414Z,0.70
2022-07-26T21:01:57.233Z,1.35
2022-07-26T21:04:25.770Z,2.78
2022-07-26T21:06:54.437Z,2.30
2022-07-26T21:09:26.992Z,1.65
2022-07-26T21:11:57.054Z,2.65
2022-07-26T21:14:25.626Z,4.28
2022-07-26T21:16:54.129Z,2.20
2022-07-26T21:19:22.748Z,2.85
2022-07-26T21:21:53.714Z,0.95
2022-07-26T21:24:22.440Z,1.23
2022-07-26T21:26:50.913Z,1.80
2022-07-26T21:29:20.757Z,3.70
2022-07-26T21:31:49.292Z,1.75
2022-07-26T21:34:17.905Z,2.33
2022-07-26T21:36:46.523Z,1.65
2022-07-26T21:39:15.169Z,2.67
2022-07-26T21:41:43.717Z,3.70
2022-07-26T21:44:12.220Z,2.28
2022-07-26T21:46:42.057Z,2.63
2022-07-26T21:49:10.933Z,6.75
2022-07-26T21:51:39.658Z,1.42
2022-07-26T21:54:08.169Z,3.22
2022-07-26T21:56:37.162Z,3.85
2022-07-26T21:59:05.873Z,5.20
2022-07-26T22:01:34.448Z,1.40
2022-07-26T22:04:04.369Z,2.67
2022-07-26T22:06:32.856Z,1.95
2022-07-26T22:09:03.667Z,3.05
2022-07-26T22:11:32.290Z,4.20
2022-07-26T22:14:00.771Z,1.73
2022-07-26T22:16:29.314Z,3.20
2022-07-26T22:18:57.773Z,5.93
2022-07-26T22:21:28.073Z,3.63
2022-07-26T22:23:56.532Z,2.80
2022-07-26T22:26:26.988Z,1.65
2022-07-26T22:28:55.493Z,4.28
2022-07-26T22:31:24.022Z,2.00
2022-07-26T22:33:52.574Z,2.80
2022-07-26T22:36:21.040Z,1.95
2022-07-26T22:38:50.889Z,4.20
2022-07-26T22:41:19.473Z,3.90
2022-07-26T22:43:47.951Z,3.08
2022-07-26T22:46:16.505Z,2.53
2022-07-26T22:48:48.064Z,4.28
2022-07-26T22:51:16.814Z,2.28
2022-07-26T22:53:45.853Z,3.53
2022-07-26T22:56:19.477Z,3.40
2022-07-26T22:58:48.510Z,2.60
2022-07-26T23:01:17.566Z,2.20
2022-07-26T23:03:49.635Z,6.22
2022-07-26T23:06:31.921Z,2.75
2022-07-26T23:09:01.050Z,4.15
2022-07-26T23:11:32.846Z,3.67
2022-07-26T23:14:01.400Z,3.00
2022-07-26T23:16:29.910Z,1.63
2022-07-26T23:18:58.471Z,8.98
2022-07-26T23:21:27.736Z,1.85
2022-07-26T23:23:56.300Z,2.80
2022-07-26T23:26:25.061Z,3.95
2022-07-26T23:28:55.415Z,4.22
2022-07-26T23:31:24.005Z,3.28
2022-07-26T23:33:54.579Z,2.17
2022-07-26T23:36:27.273Z,3.63
2022-07-26T23:38:56.124Z,2.28
2022-07-26T23:41:24.938Z,4.32
2022-07-26T23:43:55.240Z,4.13
2022-07-26T23:46:24.232Z,2.92
2022-07-26T23:48:52.878Z,3.60
2022-07-26T23:51:22.820Z,2.20
2022-07-26T23:53:51.249Z,3.97
2022-07-26T23:56:20.142Z,2.30
2022-07-26T23:58:48.615Z,3.63
